sensor_id;sensor_type;location;lat;lon;timestamp;P1;durP1;ratioP1;P2;durP2;ratioP2
19482;SDS011;9882;51.166;6.992;2022-12-07T00:01:43;41.80;;;18.00;;
19482;SDS011;9882;51.166;6.992;2022-12-07T00:04:14;37.13;;;16.75;;
19482;SDS011;9882;51.166;6.992;2022-12-07T00:06:44;48.90;;;20.10;;
19482;SDS011;9882;51.166;6.992;2022-12-07T00:09:14;47.88;;;19.73;;
19482;SDS011;9882;51.166;6.992;2022-12-07T00:11:44;44.15;;;19.38;;
19482;SDS011;9882;51.166;6.992;2022-12-07T00:14:17;43.20;;;17.55;;
19482;SDS011;9882;51.166;6.992;2022-12-07T00:16:48;40.85;;;18.67;;
19482;SDS011;9882;51.166;6.992;2022-12-07T00:19:18;47.33;;;21.17;;
19482;SDS011;9882;51.166;6.992;2022-12-07T00:21:46;39.25;;;17.70;;
19482;SDS011;9882;51.166;6.992;2022-12-07T00:24:15;42.47;;;18.77;;
19482;SDS011;9882;51.166;6.992;2022-12-07T00:26:44;37.45;;;19.05;;
19482;SDS011;9882;51.166;6.992;2022-12-07T00:29:13;39.92;;;19.95;;
19482;SDS011;9882;51.166;6.992;2022-12-07T00:31:46;45.60;;;19.27;;
19482;SDS011;9882;51.166;6.992;2022-12-07T00:34:15;43.15;;;18.27;;
19482;SDS011;9882;51.166;6.992;2022-12-07T00:39:29;40.08;;;19.73;;
19482;SDS011;9882;51.166;6.992;2022-12-07T00:41:57;41.47;;;18.90;;
19482;SDS011;9882;51.166;6.992;2022-12-07T00:44:27;44.65;;;21.00;;
19482;SDS011;9882;51.166;6.992;2022-12-07T00:46:56;42.33;;;19.13;;
19482;SDS011;9882;51.166;6.992;2022-12-07T00:49:24;43.03;;;20.70;;
19482;SDS011;9882;51.166;6.992;2022-12-07T00:51:53;44.72;;;19.60;;
19482;SDS011;9882;51.166;6.992;2022-12-07T00:54:21;39.63;;;18.75;;
19482;SDS011;9882;51.166;6.992;2022-12-07T00:56:50;49.15;;;19.85;;
19482;SDS011;9882;51.166;6.992;2022-12-07T00:59:18;55.15;;;22.73;;
19482;SDS011;9882;51.166;6.992;2022-12-07T01:01:48;50.10;;;20.83;;
19482;SDS011;9882;51.166;6.992;2022-12-07T01:04:16;46.40;;;20.60;;
19482;SDS011;9882;51.166;6.992;2022-12-07T01:06:45;51.13;;;21.13;;
19482;SDS011;9882;51.166;6.992;2022-12-07T01:09:13;51.90;;;22.90;;
19482;SDS011;9882;51.166;6.992;2022-12-07T01:11:42;52.22;;;23.13;;
19482;SDS011;9882;51.166;6.992;2022-12-07T01:14:10;38.92;;;18.45;;
19482;SDS011;9882;51.166;6.992;2022-12-07T01:16:39;47.15;;;22.15;;
19482;SDS011;9882;51.166;6.992;2022-12-07T01:19:09;43.08;;;20.10;;
19482;SDS011;9882;51.166;6.992;2022-12-07T01:21:38;52.65;;;22.95;;
19482;SDS011;9882;51.166;6.992;2022-12-07T01:24:08;44.60;;;22.38;;
19482;SDS011;9882;51.166;6.992;2022-12-07T01:26:38;38.80;;;19.73;;
19482;SDS011;9882;51.166;6.992;2022-12-07T01:29:06;55.03;;;21.70;;
19482;SDS011;9882;51.166;6.992;2022-12-07T01:31:35;48.72;;;22.42;;
19482;SDS011;9882;51.166;6.992;2022-12-07T01:34:03;48.70;;;21.38;;
19482;SDS011;9882;51.166;6.992;2022-12-07T01:36:34;42.47;;;21.17;;
19482;SDS011;9882;51.166;6.992;2022-12-07T01:39:04;40.72;;;20.27;;
19482;SDS011;9882;51.166;6.992;2022-12-07T01:41:35;42.22;;;20.83;;
19482;SDS011;9882;51.166;6.992;2022-12-07T01:44:08;46.00;;;21.83;;
19482;SDS011;9882;51.166;6.992;2022-12-07T01:46:48;46.58;;;19.90;;
19482;SDS011;9882;51.166;6.992;2022-12-07T01:49:20;45.10;;;20.17;;
19482;SDS011;9882;51.166;6.992;2022-12-07T01:51:54;51.88;;;22.98;;
19482;SDS011;9882;51.166;6.992;2022-12-07T01:54:28;48.33;;;20.70;;
19482;SDS011;9882;51.166;6.992;2022-12-07T01:56:57;44.55;;;21.00;;
19482;SDS011;9882;51.166;6.992;2022-12-07T01:59:25;46.75;;;22.40;;
19482;SDS011;9882;51.166;6.992;2022-12-07T02:01:54;54.03;;;23.23;;
19482;SDS011;9882;51.166;6.992;2022-12-07T02:04:23;39.30;;;19.63;;
19482;SDS011;9882;51.166;6.992;2022-12-07T02:06:53;41.13;;;19.88;;
19482;SDS011;9882;51.166;6.992;2022-12-07T02:09:23;45.92;;;21.83;;
19482;SDS011;9882;51.166;6.992;2022-12-07T02:11:51;41.08;;;21.25;;
19482;SDS011;9882;51.166;6.992;2022-12-07T02:14:21;50.67;;;22.30;;
19482;SDS011;9882;51.166;6.992;2022-12-07T02:16:59;40.17;;;19.85;;
19482;SDS011;9882;51.166;6.992;2022-12-07T02:20:17;60.97;;;21.42;;
19482;SDS011;9882;51.166;6.992;2022-12-07T02:22:59;40.50;;;19.02;;
19482;SDS011;9882;51.166;6.992;2022-12-07T02:25:57;40.90;;;19.55;;
19482;SDS011;9882;51.166;6.992;2022-12-07T02:28:51;42.03;;;19.27;;
19482;SDS011;9882;51.166;6.992;2022-12-07T02:31:36;40.20;;;18.70;;
19482;SDS011;9882;51.166;6.992;2022-12-07T02:34:12;39.83;;;19.60;;
19482;SDS011;9882;51.166;6.992;2022-12-07T02:36:50;49.30;;;21.73;;
19482;SDS011;9882;51.166;6.992;2022-12-07T02:39:26;43.53;;;20.75;;
19482;SDS011;9882;51.166;6.992;2022-12-07T02:42:01;46.85;;;21.83;;
19482;SDS011;9882;51.166;6.992;2022-12-07T02:44:36;45.28;;;19.63;;
19482;SDS011;9882;51.166;6.992;2022-12-07T02:47:07;62.25;;;21.88;;
19482;SDS011;9882;51.166;6.992;2022-12-07T02:49:40;50.50;;;21.73;;
19482;SDS011;9882;51.166;6.992;2022-12-07T02:52:10;42.88;;;21.17;;
19482;SDS011;9882;51.166;6.992;2022-12-07T02:54:39;45.17;;;21.50;;
19482;SDS011;9882;51.166;6.992;2022-12-07T02:57:12;44.78;;;21.25;;
19482;SDS011;9882;51.166;6.992;2022-12-07T02:59:57;45.40;;;21.15;;
19482;SDS011;9882;51.166;6.992;2022-12-07T03:02:32;52.55;;;19.88;;
19482;SDS011;9882;51.166;6.992;2022-12-07T03:08:00;37.38;;;19.88;;
19482;SDS011;9882;51.166;6.992;2022-12-07T03:10:35;47.30;;;20.48;;
19482;SDS011;9882;51.166;6.992;2022-12-07T03:13:09;36.85;;;19.50;;
19482;SDS011;9882;51.166;6.992;2022-12-07T03:15:51;47.05;;;20.05;;
19482;SDS011;9882;51.166;6.992;2022-12-07T03:18:28;41.90;;;21.30;;
19482;SDS011;9882;51.166;6.992;2022-12-07T03:21:01;45.72;;;20.88;;
19482;SDS011;9882;51.166;6.992;2022-12-07T03:23:34;37.88;;;18.60;;
19482;SDS011;9882;51.166;6.992;2022-12-07T03:26:34;43.03;;;20.25;;
19482;SDS011;9882;51.166;6.992;2022-12-07T03:29:06;45.17;;;19.17;;
19482;SDS011;9882;51.166;6.992;2022-12-07T03:31:41;41.65;;;19.45;;
19482;SDS011;9882;51.166;6.992;2022-12-07T03:34:16;43.03;;;19.65;;
19482;SDS011;9882;51.166;6.992;2022-12-07T03:36:51;40.95;;;19.73;;
19482;SDS011;9882;51.166;6.992;2022-12-07T03:39:26;40.45;;;19.80;;
19482;SDS011;9882;51.166;6.992;2022-12-07T03:42:25;43.05;;;20.60;;
19482;SDS011;9882;51.166;6.992;2022-12-07T03:44:54;40.53;;;19.02;;
19482;SDS011;9882;51.166;6.992;2022-12-07T03:47:26;43.10;;;20.83;;
19482;SDS011;9882;51.166;6.992;2022-12-07T03:50:15;43.97;;;18.67;;
19482;SDS011;9882;51.166;6.992;2022-12-07T03:53:13;42.20;;;18.85;;
19482;SDS011;9882;51.166;6.992;2022-12-07T03:55:58;42.85;;;18.75;;
19482;SDS011;9882;51.166;6.992;2022-12-07T03:58:28;39.50;;;17.52;;
19482;SDS011;9882;51.166;6.992;2022-12-07T04:00:59;40.33;;;18.83;;
19482;SDS011;9882;51.166;6.992;2022-12-07T04:07:18;42.50;;;18.77;;
19482;SDS011;9882;51.166;6.992;2022-12-07T04:10:05;35.20;;;16.20;;
19482;SDS011;9882;51.166;6.992;2022-12-07T04:12:43;34.97;;;17.80;;
19482;SDS011;9882;51.166;6.992;2022-12-07T04:21:54;33.35;;;16.40;;
19482;SDS011;9882;51.166;6.992;2022-12-07T04:24:24;48.80;;;17.35;;
19482;SDS011;9882;51.166;6.992;2022-12-07T04:26:53;40.75;;;17.02;;
19482;SDS011;9882;51.166;6.992;2022-12-07T04:29:22;36.55;;;18.20;;
19482;SDS011;9882;51.166;6.992;2022-12-07T04:31:54;43.92;;;17.52;;
19482;SDS011;9882;51.166;6.992;2022-12-07T04:37:27;36.67;;;18.15;;
19482;SDS011;9882;51.166;6.992;2022-12-07T04:39:57;48.72;;;18.33;;
19482;SDS011;9882;51.166;6.992;2022-12-07T04:42:26;34.03;;;16.35;;
19482;SDS011;9882;51.166;6.992;2022-12-07T04:44:55;37.50;;;18.02;;
19482;SDS011;9882;51.166;6.992;2022-12-07T04:47:25;47.85;;;19.08;;
19482;SDS011;9882;51.166;6.992;2022-12-07T04:49:55;36.15;;;17.35;;
19482;SDS011;9882;51.166;6.992;2022-12-07T04:52:35;37.22;;;17.33;;
19482;SDS011;9882;51.166;6.992;2022-12-07T04:55:07;36.90;;;16.20;;
19482;SDS011;9882;51.166;6.992;2022-12-07T04:57:37;37.20;;;17.88;;
19482;SDS011;9882;51.166;6.992;2022-12-07T05:00:07;37.67;;;16.30;;
19482;SDS011;9882;51.166;6.992;2022-12-07T05:03:00;38.60;;;18.23;;
19482;SDS011;9882;51.166;6.992;2022-12-07T05:05:29;46.00;;;18.75;;
19482;SDS011;9882;51.166;6.992;2022-12-07T05:07:59;33.95;;;17.15;;
19482;SDS011;9882;51.166;6.992;2022-12-07T05:10:28;35.80;;;17.35;;
19482;SDS011;9882;51.166;6.992;2022-12-07T05:13:12;40.63;;;16.13;;
19482;SDS011;9882;51.166;6.992;2022-12-07T05:15:41;42.15;;;17.38;;
19482;SDS011;9882;51.166;6.992;2022-12-07T05:18:19;38.25;;;16.80;;
19482;SDS011;9882;51.166;6.992;2022-12-07T05:20:54;37.47;;;17.67;;
19482;SDS011;9882;51.166;6.992;2022-12-07T05:30:46;37.22;;;16.38;;
19482;SDS011;9882;51.166;6.992;2022-12-07T05:33:15;36.30;;;15.82;;
19482;SDS011;9882;51.166;6.992;2022-12-07T05:35:44;39.47;;;17.05;;
19482;SDS011;9882;51.166;6.992;2022-12-07T05:38:13;41.28;;;16.08;;
19482;SDS011;9882;51.166;6.992;2022-12-07T05:44:05;37.08;;;14.88;;
19482;SDS011;9882;51.166;6.992;2022-12-07T05:46:41;35.33;;;15.43;;
19482;SDS011;9882;51.166;6.992;2022-12-07T05:49:10;33.72;;;15.20;;
19482;SDS011;9882;51.166;6.992;2022-12-07T05:51:40;39.10;;;16.00;;
19482;SDS011;9882;51.166;6.992;2022-12-07T05:54:10;36.33;;;13.98;;
19482;SDS011;9882;51.166;6.992;2022-12-07T05:56:39;42.80;;;15.60;;
19482;SDS011;9882;51.166;6.992;2022-12-07T05:59:09;37.70;;;16.90;;
19482;SDS011;9882;51.166;6.992;2022-12-07T06:01:55;31.95;;;14.43;;
19482;SDS011;9882;51.166;6.992;2022-12-07T06:04:26;37.03;;;14.82;;
19482;SDS011;9882;51.166;6.992;2022-12-07T06:06:57;38.17;;;14.60;;
19482;SDS011;9882;51.166;6.992;2022-12-07T06:09:27;35.65;;;14.40;;
19482;SDS011;9882;51.166;6.992;2022-12-07T06:15:05;31.13;;;14.15;;
19482;SDS011;9882;51.166;6.992;2022-12-07T06:17:41;32.67;;;12.63;;
19482;SDS011;9882;51.166;6.992;2022-12-07T06:24:14;30.42;;;13.27;;
19482;SDS011;9882;51.166;6.992;2022-12-07T06:26:44;31.02;;;13.82;;
19482;SDS011;9882;51.166;6.992;2022-12-07T06:29:14;33.47;;;13.18;;
19482;SDS011;9882;51.166;6.992;2022-12-07T06:31:47;29.58;;;13.27;;
19482;SDS011;9882;51.166;6.992;2022-12-07T06:38:24;30.90;;;12.63;;
19482;SDS011;9882;51.166;6.992;2022-12-07T06:40:54;32.15;;;12.70;;
19482;SDS011;9882;51.166;6.992;2022-12-07T06:43:23;27.85;;;12.45;;
19482;SDS011;9882;51.166;6.992;2022-12-07T06:53:03;35.17;;;13.35;;
19482;SDS011;9882;51.166;6.992;2022-12-07T06:55:33;28.15;;;12.57;;
19482;SDS011;9882;51.166;6.992;2022-12-07T06:58:02;35.22;;;13.20;;
19482;SDS011;9882;51.166;6.992;2022-12-07T07:00:36;26.92;;;11.88;;
19482;SDS011;9882;51.166;6.992;2022-12-07T07:03:11;30.60;;;13.38;;
19482;SDS011;9882;51.166;6.992;2022-12-07T07:05:53;32.38;;;12.27;;
19482;SDS011;9882;51.166;6.992;2022-12-07T07:08:26;26.73;;;11.00;;
19482;SDS011;9882;51.166;6.992;2022-12-07T07:10:55;27.20;;;12.65;;
19482;SDS011;9882;51.166;6.992;2022-12-07T07:13:25;27.65;;;12.57;;
19482;SDS011;9882;51.166;6.992;2022-12-07T07:15:55;25.48;;;10.82;;
19482;SDS011;9882;51.166;6.992;2022-12-07T07:18:25;26.58;;;11.35;;
19482;SDS011;9882;51.166;6.992;2022-12-07T07:20:58;33.25;;;14.05;;
19482;SDS011;9882;51.166;6.992;2022-12-07T07:23:30;28.73;;;11.68;;
19482;SDS011;9882;51.166;6.992;2022-12-07T07:25:59;25.67;;;10.35;;
19482;SDS011;9882;51.166;6.992;2022-12-07T07:28:28;29.50;;;12.88;;
19482;SDS011;9882;51.166;6.992;2022-12-07T07:30:58;25.23;;;11.85;;
19482;SDS011;9882;51.166;6.992;2022-12-07T07:33:27;29.95;;;12.27;;
19482;SDS011;9882;51.166;6.992;2022-12-07T07:35:56;25.15;;;10.65;;
19482;SDS011;9882;51.166;6.992;2022-12-07T07:38:26;24.08;;;11.35;;
19482;SDS011;9882;51.166;6.992;2022-12-07T07:40:56;29.63;;;11.88;;
19482;SDS011;9882;51.166;6.992;2022-12-07T07:43:25;30.17;;;12.07;;
19482;SDS011;9882;51.166;6.992;2022-12-07T07:45:54;28.75;;;12.38;;
19482;SDS011;9882;51.166;6.992;2022-12-07T07:48:25;25.73;;;11.43;;
19482;SDS011;9882;51.166;6.992;2022-12-07T07:50:54;31.33;;;11.52;;
19482;SDS011;9882;51.166;6.992;2022-12-07T07:53:23;25.77;;;11.52;;
19482;SDS011;9882;51.166;6.992;2022-12-07T07:55:53;30.23;;;12.68;;
19482;SDS011;9882;51.166;6.992;2022-12-07T07:58:25;24.38;;;10.23;;
19482;SDS011;9882;51.166;6.992;2022-12-07T08:00:54;29.08;;;11.63;;
19482;SDS011;9882;51.166;6.992;2022-12-07T08:03:24;32.08;;;13.20;;
19482;SDS011;9882;51.166;6.992;2022-12-07T08:05:53;23.17;;;10.63;;
19482;SDS011;9882;51.166;6.992;2022-12-07T08:08:22;25.00;;;10.98;;
19482;SDS011;9882;51.166;6.992;2022-12-07T08:10:52;32.63;;;11.73;;
19482;SDS011;9882;51.166;6.992;2022-12-07T08:13:22;23.90;;;11.48;;
19482;SDS011;9882;51.166;6.992;2022-12-07T08:15:56;24.73;;;10.85;;
19482;SDS011;9882;51.166;6.992;2022-12-07T08:18:26;24.08;;;10.20;;
19482;SDS011;9882;51.166;6.992;2022-12-07T08:20:58;31.30;;;10.45;;
19482;SDS011;9882;51.166;6.992;2022-12-07T08:23:28;26.20;;;10.48;;
19482;SDS011;9882;51.166;6.992;2022-12-07T08:26:03;27.25;;;11.32;;
19482;SDS011;9882;51.166;6.992;2022-12-07T08:28:34;23.27;;;10.63;;
19482;SDS011;9882;51.166;6.992;2022-12-07T08:31:05;21.70;;;10.52;;
19482;SDS011;9882;51.166;6.992;2022-12-07T08:33:36;25.95;;;10.63;;
19482;SDS011;9882;51.166;6.992;2022-12-07T08:36:07;30.95;;;11.23;;
19482;SDS011;9882;51.166;6.992;2022-12-07T08:38:39;23.88;;;10.25;;
19482;SDS011;9882;51.166;6.992;2022-12-07T08:41:17;23.52;;;10.48;;
19482;SDS011;9882;51.166;6.992;2022-12-07T08:43:47;26.60;;;10.90;;
19482;SDS011;9882;51.166;6.992;2022-12-07T08:46:18;28.75;;;10.57;;
19482;SDS011;9882;51.166;6.992;2022-12-07T08:48:52;36.45;;;12.70;;
19482;SDS011;9882;51.166;6.992;2022-12-07T08:51:24;26.15;;;11.27;;
19482;SDS011;9882;51.166;6.992;2022-12-07T08:53:54;23.60;;;10.07;;
19482;SDS011;9882;51.166;6.992;2022-12-07T08:56:26;26.35;;;11.15;;
19482;SDS011;9882;51.166;6.992;2022-12-07T08:58:56;31.75;;;11.18;;
19482;SDS011;9882;51.166;6.992;2022-12-07T09:01:28;26.20;;;10.73;;
19482;SDS011;9882;51.166;6.992;2022-12-07T09:03:57;31.95;;;11.38;;
19482;SDS011;9882;51.166;6.992;2022-12-07T09:06:27;22.20;;;10.35;;
19482;SDS011;9882;51.166;6.992;2022-12-07T09:08:57;25.23;;;10.43;;
19482;SDS011;9882;51.166;6.992;2022-12-07T09:11:29;26.05;;;11.07;;
19482;SDS011;9882;51.166;6.992;2022-12-07T09:13:58;27.65;;;11.30;;
19482;SDS011;9882;51.166;6.992;2022-12-07T09:16:29;27.77;;;10.38;;
19482;SDS011;9882;51.166;6.992;2022-12-07T09:18:58;28.38;;;11.52;;
19482;SDS011;9882;51.166;6.992;2022-12-07T09:21:27;26.90;;;10.05;;
19482;SDS011;9882;51.166;6.992;2022-12-07T09:23:57;33.10;;;11.45;;
19482;SDS011;9882;51.166;6.992;2022-12-07T09:26:26;28.63;;;10.80;;
19482;SDS011;9882;51.166;6.992;2022-12-07T09:28:55;27.65;;;11.85;;
19482;SDS011;9882;51.166;6.992;2022-12-07T09:31:24;24.98;;;10.73;;
19482;SDS011;9882;51.166;6.992;2022-12-07T09:33:56;24.52;;;10.27;;
19482;SDS011;9882;51.166;6.992;2022-12-07T09:36:26;33.42;;;11.35;;
19482;SDS011;9882;51.166;6.992;2022-12-07T09:38:57;26.00;;;10.32;;
19482;SDS011;9882;51.166;6.992;2022-12-07T09:41:26;25.65;;;9.88;;
19482;SDS011;9882;51.166;6.992;2022-12-07T09:44:00;29.92;;;10.85;;
19482;SDS011;9882;51.166;6.992;2022-12-07T09:46:34;24.77;;;10.15;;
19482;SDS011;9882;51.166;6.992;2022-12-07T09:49:07;26.98;;;10.95;;
19482;SDS011;9882;51.166;6.992;2022-12-07T09:51:40;23.45;;;9.95;;
19482;SDS011;9882;51.166;6.992;2022-12-07T09:54:11;34.25;;;10.35;;
19482;SDS011;9882;51.166;6.992;2022-12-07T09:56:42;23.63;;;9.10;;
19482;SDS011;9882;51.166;6.992;2022-12-07T09:59:13;30.45;;;9.95;;
19482;SDS011;9882;51.166;6.992;2022-12-07T10:01:47;21.90;;;8.65;;
19482;SDS011;9882;51.166;6.992;2022-12-07T10:04:20;19.33;;;8.77;;
19482;SDS011;9882;51.166;6.992;2022-12-07T10:06:52;19.95;;;8.85;;
19482;SDS011;9882;51.166;6.992;2022-12-07T10:09:21;19.55;;;8.48;;
19482;SDS011;9882;51.166;6.992;2022-12-07T10:12:02;20.60;;;9.05;;
19482;SDS011;9882;51.166;6.992;2022-12-07T10:14:34;20.73;;;8.68;;
19482;SDS011;9882;51.166;6.992;2022-12-07T10:17:30;26.13;;;9.65;;
19482;SDS011;9882;51.166;6.992;2022-12-07T10:20:13;27.13;;;8.80;;
19482;SDS011;9882;51.166;6.992;2022-12-07T10:22:54;24.98;;;9.50;;
19482;SDS011;9882;51.166;6.992;2022-12-07T10:25:34;25.75;;;9.30;;
19482;SDS011;9882;51.166;6.992;2022-12-07T10:28:13;25.17;;;9.65;;
19482;SDS011;9882;51.166;6.992;2022-12-07T10:30:51;21.70;;;8.60;;
19482;SDS011;9882;51.166;6.992;2022-12-07T10:33:30;25.55;;;9.95;;
19482;SDS011;9882;51.166;6.992;2022-12-07T10:36:15;22.98;;;9.15;;
19482;SDS011;9882;51.166;6.992;2022-12-07T10:38:47;24.40;;;9.70;;
19482;SDS011;9882;51.166;6.992;2022-12-07T10:41:17;21.88;;;8.98;;
19482;SDS011;9882;51.166;6.992;2022-12-07T10:43:51;22.88;;;9.30;;
19482;SDS011;9882;51.166;6.992;2022-12-07T10:46:26;23.80;;;9.68;;
19482;SDS011;9882;51.166;6.992;2022-12-07T10:49:25;19.58;;;9.35;;
19482;SDS011;9882;51.166;6.992;2022-12-07T10:52:26;24.50;;;9.02;;
19482;SDS011;9882;51.166;6.992;2022-12-07T10:55:11;22.13;;;8.32;;
19482;SDS011;9882;51.166;6.992;2022-12-07T10:57:56;24.08;;;9.57;;
19482;SDS011;9882;51.166;6.992;2022-12-07T11:00:39;25.23;;;9.38;;
19482;SDS011;9882;51.166;6.992;2022-12-07T11:03:17;26.52;;;10.45;;
19482;SDS011;9882;51.166;6.992;2022-12-07T11:06:05;31.17;;;9.80;;
19482;SDS011;9882;51.166;6.992;2022-12-07T11:08:47;28.15;;;10.32;;
19482;SDS011;9882;51.166;6.992;2022-12-07T11:11:38;22.58;;;8.73;;
19482;SDS011;9882;51.166;6.992;2022-12-07T11:14:15;23.52;;;9.38;;
19482;SDS011;9882;51.166;6.992;2022-12-07T11:16:55;22.80;;;8.82;;
19482;SDS011;9882;51.166;6.992;2022-12-07T11:19:32;24.80;;;8.82;;
19482;SDS011;9882;51.166;6.992;2022-12-07T11:22:19;25.05;;;8.93;;
19482;SDS011;9882;51.166;6.992;2022-12-07T11:24:57;21.77;;;8.43;;
19482;SDS011;9882;51.166;6.992;2022-12-07T11:27:40;24.98;;;9.15;;
19482;SDS011;9882;51.166;6.992;2022-12-07T11:30:17;19.10;;;7.80;;
19482;SDS011;9882;51.166;6.992;2022-12-07T11:32:52;25.55;;;9.38;;
19482;SDS011;9882;51.166;6.992;2022-12-07T11:35:42;24.23;;;8.80;;
19482;SDS011;9882;51.166;6.992;2022-12-07T11:38:22;19.85;;;7.25;;
19482;SDS011;9882;51.166;6.992;2022-12-07T11:40:58;25.42;;;7.25;;
19482;SDS011;9882;51.166;6.992;2022-12-07T11:43:49;24.67;;;8.43;;
19482;SDS011;9882;51.166;6.992;2022-12-07T11:46:24;24.55;;;9.05;;
19482;SDS011;9882;51.166;6.992;2022-12-07T11:48:58;26.35;;;8.27;;
19482;SDS011;9882;51.166;6.992;2022-12-07T11:51:33;27.25;;;9.50;;
19482;SDS011;9882;51.166;6.992;2022-12-07T11:54:09;17.15;;;6.90;;
19482;SDS011;9882;51.166;6.992;2022-12-07T11:56:44;19.35;;;6.60;;
19482;SDS011;9882;51.166;6.992;2022-12-07T11:59:17;14.85;;;5.88;;
19482;SDS011;9882;51.166;6.992;2022-12-07T12:01:53;15.30;;;6.10;;
19482;SDS011;9882;51.166;6.992;2022-12-07T12:04:30;14.50;;;5.30;;
19482;SDS011;9882;51.166;6.992;2022-12-07T12:07:10;17.85;;;5.82;;
19482;SDS011;9882;51.166;6.992;2022-12-07T12:10:05;14.20;;;4.95;;
19482;SDS011;9882;51.166;6.992;2022-12-07T12:13:08;13.25;;;4.55;;
19482;SDS011;9882;51.166;6.992;2022-12-07T12:16:17;13.60;;;5.25;;
19482;SDS011;9882;51.166;6.992;2022-12-07T12:19:05;11.18;;;4.70;;
19482;SDS011;9882;51.166;6.992;2022-12-07T12:21:46;13.82;;;5.60;;
19482;SDS011;9882;51.166;6.992;2022-12-07T12:24:19;10.52;;;4.57;;
19482;SDS011;9882;51.166;6.992;2022-12-07T12:26:54;10.13;;;4.90;;
19482;SDS011;9882;51.166;6.992;2022-12-07T12:29:31;15.00;;;4.72;;
19482;SDS011;9882;51.166;6.992;2022-12-07T12:32:06;11.27;;;4.20;;
19482;SDS011;9882;51.166;6.992;2022-12-07T12:34:42;13.85;;;4.63;;
19482;SDS011;9882;51.166;6.992;2022-12-07T12:37:44;12.52;;;4.70;;
19482;SDS011;9882;51.166;6.992;2022-12-07T12:46:44;17.42;;;4.85;;
19482;SDS011;9882;51.166;6.992;2022-12-07T12:58:43;21.80;;;4.95;;
19482;SDS011;9882;51.166;6.992;2022-12-07T13:04:28;13.55;;;5.13;;
19482;SDS011;9882;51.166;6.992;2022-12-07T13:10:21;13.82;;;4.75;;
19482;SDS011;9882;51.166;6.992;2022-12-07T13:13:04;20.20;;;5.03;;
19482;SDS011;9882;51.166;6.992;2022-12-07T13:15:50;13.43;;;4.88;;
19482;SDS011;9882;51.166;6.992;2022-12-07T13:18:25;15.25;;;5.07;;
19482;SDS011;9882;51.166;6.992;2022-12-07T13:21:39;12.52;;;4.82;;
19482;SDS011;9882;51.166;6.992;2022-12-07T13:24:12;14.00;;;4.70;;
19482;SDS011;9882;51.166;6.992;2022-12-07T13:27:22;12.98;;;4.70;;
19482;SDS011;9882;51.166;6.992;2022-12-07T13:30:13;17.88;;;5.05;;
19482;SDS011;9882;51.166;6.992;2022-12-07T13:32:53;17.45;;;5.28;;
19482;SDS011;9882;51.166;6.992;2022-12-07T13:35:28;14.98;;;5.05;;
19482;SDS011;9882;51.166;6.992;2022-12-07T13:38:19;17.88;;;4.82;;
19482;SDS011;9882;51.166;6.992;2022-12-07T13:41:14;10.68;;;4.85;;
19482;SDS011;9882;51.166;6.992;2022-12-07T13:44:16;16.50;;;4.75;;
19482;SDS011;9882;51.166;6.992;2022-12-07T13:46:55;13.13;;;4.57;;
19482;SDS011;9882;51.166;6.992;2022-12-07T13:49:50;15.38;;;4.63;;
19482;SDS011;9882;51.166;6.992;2022-12-07T13:52:35;18.27;;;5.10;;
19482;SDS011;9882;51.166;6.992;2022-12-07T13:55:14;26.92;;;6.22;;
19482;SDS011;9882;51.166;6.992;2022-12-07T13:57:49;16.42;;;6.55;;
19482;SDS011;9882;51.166;6.992;2022-12-07T14:00:24;16.27;;;5.15;;
19482;SDS011;9882;51.166;6.992;2022-12-07T14:03:23;15.35;;;5.53;;
19482;SDS011;9882;51.166;6.992;2022-12-07T14:06:16;15.98;;;6.40;;
19482;SDS011;9882;51.166;6.992;2022-12-07T14:12:19;11.45;;;4.70;;
19482;SDS011;9882;51.166;6.992;2022-12-07T14:14:50;20.75;;;6.22;;
19482;SDS011;9882;51.166;6.992;2022-12-07T14:17:26;13.65;;;5.40;;
19482;SDS011;9882;51.166;6.992;2022-12-07T14:19:56;10.82;;;4.32;;
19482;SDS011;9882;51.166;6.992;2022-12-07T14:22:28;13.40;;;5.22;;
19482;SDS011;9882;51.166;6.992;2022-12-07T14:25:15;16.23;;;5.30;;
19482;SDS011;9882;51.166;6.992;2022-12-07T14:27:48;11.23;;;4.68;;
19482;SDS011;9882;51.166;6.992;2022-12-07T14:30:25;9.27;;;4.00;;
19482;SDS011;9882;51.166;6.992;2022-12-07T14:32:57;13.23;;;4.85;;
19482;SDS011;9882;51.166;6.992;2022-12-07T14:35:29;12.90;;;4.57;;
19482;SDS011;9882;51.166;6.992;2022-12-07T14:37:59;14.27;;;4.72;;
19482;SDS011;9882;51.166;6.992;2022-12-07T14:40:30;19.27;;;4.70;;
19482;SDS011;9882;51.166;6.992;2022-12-07T14:43:00;16.52;;;4.65;;
19482;SDS011;9882;51.166;6.992;2022-12-07T14:45:31;14.38;;;4.47;;
19482;SDS011;9882;51.166;6.992;2022-12-07T14:48:01;11.68;;;4.53;;
19482;SDS011;9882;51.166;6.992;2022-12-07T14:50:51;8.88;;;4.18;;
19482;SDS011;9882;51.166;6.992;2022-12-07T14:53:42;11.75;;;4.30;;
19482;SDS011;9882;51.166;6.992;2022-12-07T14:56:17;11.82;;;3.55;;
19482;SDS011;9882;51.166;6.992;2022-12-07T14:58:46;8.13;;;3.55;;
19482;SDS011;9882;51.166;6.992;2022-12-07T15:01:15;15.13;;;4.63;;
19482;SDS011;9882;51.166;6.992;2022-12-07T15:03:45;16.67;;;4.80;;
19482;SDS011;9882;51.166;6.992;2022-12-07T15:06:15;17.77;;;4.30;;
19482;SDS011;9882;51.166;6.992;2022-12-07T15:08:46;9.68;;;3.83;;
19482;SDS011;9882;51.166;6.992;2022-12-07T15:11:17;11.13;;;4.22;;
19482;SDS011;9882;51.166;6.992;2022-12-07T15:13:47;15.68;;;4.70;;
19482;SDS011;9882;51.166;6.992;2022-12-07T15:16:34;18.05;;;5.25;;
19482;SDS011;9882;51.166;6.992;2022-12-07T15:19:19;14.63;;;4.60;;
19482;SDS011;9882;51.166;6.992;2022-12-07T15:21:53;18.85;;;4.88;;
19482;SDS011;9882;51.166;6.992;2022-12-07T15:24:23;23.70;;;4.47;;
19482;SDS011;9882;51.166;6.992;2022-12-07T15:26:54;12.02;;;4.50;;
19482;SDS011;9882;51.166;6.992;2022-12-07T15:29:23;9.90;;;4.45;;
19482;SDS011;9882;51.166;6.992;2022-12-07T15:31:53;16.90;;;5.68;;
19482;SDS011;9882;51.166;6.992;2022-12-07T15:34:23;19.48;;;4.80;;
19482;SDS011;9882;51.166;6.992;2022-12-07T15:36:58;8.57;;;3.88;;
19482;SDS011;9882;51.166;6.992;2022-12-07T15:39:27;17.83;;;4.43;;
19482;SDS011;9882;51.166;6.992;2022-12-07T15:41:58;8.80;;;4.18;;
19482;SDS011;9882;51.166;6.992;2022-12-07T15:44:28;9.25;;;3.90;;
19482;SDS011;9882;51.166;6.992;2022-12-07T15:47:15;14.18;;;4.35;;
19482;SDS011;9882;51.166;6.992;2022-12-07T15:49:45;10.60;;;4.35;;
19482;SDS011;9882;51.166;6.992;2022-12-07T15:52:14;18.45;;;5.75;;
19482;SDS011;9882;51.166;6.992;2022-12-07T15:54:44;20.17;;;5.65;;
19482;SDS011;9882;51.166;6.992;2022-12-07T15:57:16;13.63;;;5.05;;
19482;SDS011;9882;51.166;6.992;2022-12-07T15:59:48;14.82;;;6.18;;
19482;SDS011;9882;51.166;6.992;2022-12-07T16:02:17;15.57;;;6.60;;
19482;SDS011;9882;51.166;6.992;2022-12-07T16:04:46;16.23;;;5.93;;
19482;SDS011;9882;51.166;6.992;2022-12-07T16:07:15;21.20;;;7.10;;
19482;SDS011;9882;51.166;6.992;2022-12-07T16:09:45;17.58;;;6.15;;
19482;SDS011;9882;51.166;6.992;2022-12-07T16:12:18;17.17;;;7.00;;
19482;SDS011;9882;51.166;6.992;2022-12-07T16:14:47;23.42;;;7.10;;
19482;SDS011;9882;51.166;6.992;2022-12-07T16:17:16;17.85;;;7.35;;
19482;SDS011;9882;51.166;6.992;2022-12-07T16:19:46;12.55;;;5.90;;
19482;SDS011;9882;51.166;6.992;2022-12-07T16:22:15;21.10;;;7.05;;
19482;SDS011;9882;51.166;6.992;2022-12-07T16:24:45;16.77;;;6.78;;
19482;SDS011;9882;51.166;6.992;2022-12-07T16:27:14;22.92;;;6.85;;
19482;SDS011;9882;51.166;6.992;2022-12-07T16:36:09;15.38;;;6.40;;
19482;SDS011;9882;51.166;6.992;2022-12-07T16:38:40;19.15;;;6.85;;
19482;SDS011;9882;51.166;6.992;2022-12-07T16:41:12;15.15;;;5.65;;
19482;SDS011;9882;51.166;6.992;2022-12-07T16:43:41;18.92;;;7.07;;
19482;SDS011;9882;51.166;6.992;2022-12-07T16:46:10;20.65;;;7.10;;